createdAt,value
2023-07-18T00:00:19.963Z,17.19
2023-07-18T00:02:47.114Z,17.22
2023-07-18T00:05:14.261Z,17.34
2023-07-18T00:07:43.487Z,17.24
2023-07-18T00:10:11.483Z,17.23
2023-07-18T00:12:49.894Z,17.09
2023-07-18T00:15:17.899Z,17.13
2023-07-18T00:18:10.108Z,16.88
2023-07-18T00:20:36.696Z,17.08
2023-07-18T00:23:03.261Z,16.92
2023-07-18T00:25:30.016Z,17.02
2023-07-18T00:28:10.275Z,16.95
2023-07-18T00:30:36.996Z,16.97
2023-07-18T00:33:30.263Z,16.80
2023-07-18T00:35:56.794Z,16.71
2023-07-18T00:38:23.348Z,16.83
2023-07-18T00:40:50.282Z,16.73
2023-07-18T00:43:17.027Z,16.74
2023-07-18T00:45:51.173Z,16.74
2023-07-18T00:48:18.733Z,16.71
2023-07-18T00:50:56.395Z,16.66
2023-07-18T00:53:23.965Z,16.61
2023-07-18T00:55:51.567Z,16.63
2023-07-18T00:58:40.572Z,16.49
2023-07-18T01:01:08.038Z,16.11
2023-07-18T01:03:40.096Z,15.95
2023-07-18T01:06:26.050Z,15.99
2023-07-18T01:09:01.693Z,16.01
2023-07-18T01:11:28.308Z,15.97
2023-07-18T01:13:54.812Z,15.74
2023-07-18T01:16:21.413Z,15.86
2023-07-18T01:18:48.087Z,15.87
2023-07-18T01:21:19.997Z,15.90
2023-07-18T01:23:47.067Z,15.74
2023-07-18T01:26:14.382Z,15.82
2023-07-18T01:28:41.475Z,15.82
2023-07-18T01:31:08.591Z,15.73
2023-07-18T01:33:35.694Z,15.85
2023-07-18T01:36:02.582Z,15.79
2023-07-18T01:38:32.182Z,15.79
2023-07-18T01:41:02.472Z,15.79
2023-07-18T01:43:29.016Z,15.88
2023-07-18T01:46:00.470Z,15.96
2023-07-18T01:48:27.615Z,15.90
2023-07-18T01:50:54.978Z,15.96
2023-07-18T01:53:21.509Z,15.89
2023-07-18T01:55:48.150Z,15.88
2023-07-18T01:58:14.768Z,15.83
2023-07-18T02:00:56.609Z,15.70
2023-07-18T02:03:40.291Z,15.74
2023-07-18T02:06:30.025Z,15.76
2023-07-18T02:08:56.570Z,15.68
2023-07-18T02:11:23.139Z,15.67
2023-07-18T02:13:49.843Z,15.69
2023-07-18T02:16:16.410Z,15.61
2023-07-18T02:18:44.566Z,15.46
2023-07-18T02:21:17.233Z,15.46
2023-07-18T02:23:46.444Z,15.49
2023-07-18T02:26:15.339Z,15.56
2023-07-18T02:28:41.865Z,15.61
2023-07-18T02:31:20.737Z,15.29
2023-07-18T02:33:47.502Z,15.39
2023-07-18T02:36:14.340Z,15.42
2023-07-18T02:38:40.869Z,15.49
2023-07-18T02:41:07.548Z,15.35
2023-07-18T02:43:34.050Z,15.30
2023-07-18T02:46:07.919Z,15.38
2023-07-18T02:48:34.620Z,15.34
2023-07-18T02:51:01.142Z,15.35
2023-07-18T02:53:45.017Z,15.29
2023-07-18T02:56:11.643Z,15.25
2023-07-18T02:59:00.044Z,15.31
2023-07-18T03:01:26.676Z,15.30
2023-07-18T03:04:07.563Z,15.11
2023-07-18T03:06:34.054Z,15.13
2023-07-18T03:09:00.865Z,15.13
2023-07-18T03:11:32.867Z,15.08
2023-07-18T03:13:59.807Z,15.07
2023-07-18T03:16:26.928Z,14.97
2023-07-18T03:18:55.313Z,15.08
2023-07-18T03:21:22.012Z,14.94
2023-07-18T03:23:48.617Z,14.95
2023-07-18T03:26:15.158Z,14.88
2023-07-18T03:28:43.790Z,14.80
2023-07-18T03:31:10.286Z,14.83
2023-07-18T03:33:36.895Z,14.56
2023-07-18T03:36:03.594Z,14.64
2023-07-18T03:38:30.066Z,14.77
2023-07-18T03:40:56.748Z,14.86
2023-07-18T03:43:41.712Z,14.72
2023-07-18T03:46:08.226Z,14.67
2023-07-18T03:48:35.385Z,14.53
2023-07-18T03:51:06.684Z,14.70
2023-07-18T03:53:33.676Z,14.83
2023-07-18T03:56:08.602Z,14.90
2023-07-18T03:58:35.565Z,14.75
2023-07-18T04:01:11.650Z,14.79
2023-07-18T04:03:39.298Z,14.67
2023-07-18T04:06:07.730Z,14.76
2023-07-18T04:08:34.608Z,14.78
2023-07-18T04:11:01.415Z,14.75
2023-07-18T04:13:31.096Z,14.56
2023-07-18T04:16:01.904Z,14.49
2023-07-18T04:19:16.194Z,14.66
2023-07-18T04:22:25.364Z,14.80
2023-07-18T04:24:51.930Z,14.78
2023-07-18T04:27:18.438Z,14.80
2023-07-18T04:29:50.735Z,14.87
2023-07-18T04:32:35.984Z,14.88
2023-07-18T04:35:02.920Z,14.86
2023-07-18T04:37:34.849Z,14.96
2023-07-18T04:40:01.380Z,14.95
2023-07-18T04:42:31.105Z,15.05
2023-07-18T04:45:10.979Z,15.27
2023-07-18T04:47:37.692Z,15.83
2023-07-18T04:50:16.488Z,16.99
2023-07-18T04:52:43.217Z,17.78
2023-07-18T04:55:20.806Z,18.34
2023-07-18T04:57:47.325Z,18.58
2023-07-18T05:00:14.465Z,19.20
2023-07-18T05:02:42.022Z,19.82
2023-07-18T05:05:08.676Z,19.80
2023-07-18T05:07:46.058Z,20.17
2023-07-18T05:10:12.596Z,20.83
2023-07-18T05:12:39.264Z,20.75
2023-07-18T05:15:06.603Z,21.01
2023-07-18T05:17:33.331Z,21.40
2023-07-18T05:20:00.282Z,21.74
2023-07-18T05:22:46.279Z,21.73
2023-07-18T05:25:14.736Z,22.10
2023-07-18T05:27:44.259Z,22.17
2023-07-18T05:30:18.719Z,21.94
2023-07-18T05:32:51.541Z,22.51
2023-07-18T05:35:18.205Z,23.10
2023-07-18T05:37:45.380Z,23.04
2023-07-18T05:40:13.314Z,23.13
2023-07-18T05:42:44.279Z,22.99
2023-07-18T05:45:10.874Z,22.83
2023-07-18T05:47:40.641Z,22.53
2023-07-18T05:50:08.118Z,22.93
2023-07-18T05:52:48.045Z,23.55
2023-07-18T05:55:15.198Z,23.52
2023-07-18T05:57:42.125Z,23.65
2023-07-18T06:00:11.555Z,23.64
2023-07-18T06:02:38.315Z,23.51
2023-07-18T06:05:06.289Z,23.59
2023-07-18T06:07:42.234Z,23.78
2023-07-18T06:10:08.985Z,24.01
2023-07-18T06:12:37.014Z,24.40
2023-07-18T06:15:04.888Z,24.35
2023-07-18T06:17:31.504Z,24.41
2023-07-18T06:20:10.528Z,24.47
2023-07-18T06:22:37.082Z,24.69
2023-07-18T06:25:03.937Z,24.63
2023-07-18T06:27:30.575Z,24.78
2023-07-18T06:29:57.721Z,25.17
2023-07-18T06:32:25.149Z,25.66
2023-07-18T06:34:52.097Z,25.00
2023-07-18T06:37:34.905Z,25.32
2023-07-18T06:40:03.888Z,25.68
2023-07-18T06:42:30.731Z,25.56
2023-07-18T06:44:57.473Z,25.55
2023-07-18T06:47:24.024Z,25.59
2023-07-18T06:49:50.714Z,25.64
2023-07-18T06:52:17.225Z,25.55
2023-07-18T06:54:43.772Z,25.69
2023-07-18T06:57:11.219Z,26.09
2023-07-18T06:59:38.178Z,26.11
2023-07-18T07:02:13.414Z,26.30
2023-07-18T07:04:40.420Z,26.09
2023-07-18T07:07:07.737Z,26.06
2023-07-18T07:09:34.663Z,26.18
2023-07-18T07:12:03.009Z,26.52
2023-07-18T07:14:29.568Z,26.39
2023-07-18T07:16:58.285Z,26.04
2023-07-18T07:19:34.217Z,26.15
2023-07-18T07:22:00.890Z,26.66
2023-07-18T07:24:32.045Z,26.70
2023-07-18T07:26:59.171Z,27.09
2023-07-18T07:29:27.579Z,27.41
2023-07-18T07:32:00.306Z,27.60
2023-07-18T07:34:27.138Z,27.83
2023-07-18T07:36:54.311Z,27.34
2023-07-18T07:39:20.952Z,27.05
2023-07-18T07:41:47.457Z,27.70
2023-07-18T07:44:38.912Z,27.92
2023-07-18T07:47:05.598Z,27.79
2023-07-18T07:49:35.250Z,28.14
2023-07-18T07:52:01.973Z,28.17
2023-07-18T07:54:28.584Z,28.17
2023-07-18T07:56:55.152Z,27.98
2023-07-18T07:59:21.889Z,27.63
2023-07-18T08:02:02.066Z,27.62
2023-07-18T08:04:28.659Z,27.82
2023-07-18T08:06:57.252Z,28.52
2023-07-18T08:09:24.344Z,28.59
2023-07-18T08:11:51.250Z,28.63
2023-07-18T08:14:18.920Z,28.82
2023-07-18T08:16:45.627Z,29.13
2023-07-18T08:19:14.474Z,28.97
2023-07-18T08:21:41.079Z,29.17
2023-07-18T08:24:08.872Z,29.73
2023-07-18T08:26:35.615Z,30.09
2023-07-18T08:29:02.379Z,29.92
2023-07-18T08:31:29.036Z,29.50
2023-07-18T08:33:55.607Z,29.56
2023-07-18T08:36:32.418Z,29.69
2023-07-18T08:38:59.336Z,29.05
2023-07-18T08:41:35.640Z,29.15
2023-07-18T08:44:04.085Z,29.41
2023-07-18T08:46:31.216Z,29.48
2023-07-18T08:49:26.655Z,29.93
2023-07-18T08:51:53.891Z,30.23
2023-07-18T08:54:22.820Z,30.37
2023-07-18T08:56:49.382Z,30.19
2023-07-18T08:59:16.370Z,30.09
2023-07-18T09:01:51.162Z,30.17
2023-07-18T09:04:18.970Z,30.39
2023-07-18T09:07:14.201Z,30.05
2023-07-18T09:09:49.340Z,30.44
2023-07-18T09:12:16.561Z,30.48
2023-07-18T09:14:44.540Z,30.24
2023-07-18T09:17:11.229Z,30.43
2023-07-18T09:19:46.062Z,30.62
2023-07-18T09:22:15.390Z,30.81
2023-07-18T09:24:43.670Z,30.49
2023-07-18T09:27:19.823Z,31.09
2023-07-18T09:29:48.133Z,30.94
2023-07-18T09:32:19.479Z,31.11
2023-07-18T09:35:01.826Z,30.51
2023-07-18T09:37:28.941Z,30.40
2023-07-18T09:39:55.882Z,30.39
2023-07-18T09:42:45.233Z,30.97
2023-07-18T09:45:16.244Z,30.44
2023-07-18T09:47:43.982Z,30.97
2023-07-18T09:50:13.492Z,30.92
2023-07-18T09:52:48.182Z,30.82
2023-07-18T09:55:28.495Z,30.65
2023-07-18T09:58:00.513Z,30.71
2023-07-18T10:00:42.882Z,30.59
2023-07-18T10:03:10.347Z,30.68
2023-07-18T10:05:41.103Z,30.54
2023-07-18T10:08:08.618Z,30.68
2023-07-18T10:10:35.206Z,30.78
2023-07-18T10:13:02.688Z,31.14
2023-07-18T10:15:29.922Z,30.96
2023-07-18T10:18:16.515Z,30.70
2023-07-18T10:20:57.662Z,30.44
2023-07-18T10:23:39.710Z,30.27
2023-07-18T10:26:09.031Z,30.76
2023-07-18T10:28:47.157Z,31.00
2023-07-18T10:31:36.473Z,31.23
2023-07-18T10:34:10.905Z,30.96
2023-07-18T10:36:41.684Z,31.17
2023-07-18T10:39:57.382Z,31.17
2023-07-18T10:42:44.051Z,31.02
2023-07-18T10:45:10.879Z,31.59
2023-07-18T10:47:39.219Z,32.08
2023-07-18T10:50:08.210Z,32.11
2023-07-18T10:52:36.592Z,32.14
2023-07-18T10:55:08.455Z,31.82
2023-07-18T10:57:46.220Z,31.76
2023-07-18T11:00:13.324Z,31.53
2023-07-18T11:02:53.293Z,32.20
2023-07-18T11:05:19.941Z,32.06
2023-07-18T11:07:50.219Z,32.22
2023-07-18T11:10:17.198Z,31.82
2023-07-18T11:12:44.296Z,31.90
2023-07-18T11:15:12.986Z,31.95
2023-07-18T11:17:43.367Z,31.92
2023-07-18T11:20:12.978Z,31.81
2023-07-18T11:22:40.892Z,31.44
2023-07-18T11:25:07.815Z,31.12
2023-07-18T11:27:34.453Z,31.27
2023-07-18T11:30:10.803Z,31.59
2023-07-18T11:32:42.730Z,31.92
2023-07-18T11:35:13.206Z,32.14
2023-07-18T11:37:43.320Z,31.75
2023-07-18T11:40:12.214Z,32.24
2023-07-18T11:42:50.769Z,32.20
2023-07-18T11:45:21.472Z,32.02
2023-07-18T11:47:56.624Z,32.12
2023-07-18T11:50:29.798Z,32.12
2023-07-18T11:52:58.985Z,32.22
2023-07-18T11:55:25.633Z,32.44
2023-07-18T11:57:52.241Z,32.51
2023-07-18T12:00:23.378Z,31.90
2023-07-18T12:02:50.283Z,32.11
2023-07-18T12:05:37.490Z,32.50
2023-07-18T12:08:04.292Z,32.08
2023-07-18T12:10:33.421Z,31.75
2023-07-18T12:13:06.204Z,31.69
2023-07-18T12:15:34.137Z,31.46
2023-07-18T12:18:01.907Z,31.17
2023-07-18T12:20:28.575Z,31.49
2023-07-18T12:22:55.204Z,31.99
2023-07-18T12:25:23.374Z,32.31
2023-07-18T12:27:50.147Z,31.99
2023-07-18T12:30:16.896Z,32.51
2023-07-18T12:32:43.573Z,32.04
2023-07-18T12:35:10.440Z,31.82
2023-07-18T12:37:37.102Z,32.01
2023-07-18T12:40:04.540Z,32.04
2023-07-18T12:42:31.455Z,31.49
2023-07-18T12:45:21.886Z,31.69
2023-07-18T12:47:50.541Z,31.86
2023-07-18T12:50:36.685Z,31.86
2023-07-18T12:53:03.724Z,31.77
2023-07-18T12:55:30.456Z,31.85
2023-07-18T12:57:57.027Z,31.93
2023-07-18T13:00:23.876Z,31.80
2023-07-18T13:02:50.458Z,31.40
2023-07-18T13:05:18.083Z,31.65
2023-07-18T13:07:44.775Z,31.70
2023-07-18T13:10:14.374Z,31.46
2023-07-18T13:12:41.438Z,31.36
2023-07-18T13:15:08.692Z,31.54
2023-07-18T13:17:35.272Z,31.18
2023-07-18T13:20:02.006Z,31.47
2023-07-18T13:22:55.417Z,30.97
2023-07-18T13:25:22.156Z,31.45
2023-07-18T13:28:04.616Z,31.18
2023-07-18T13:30:35.639Z,31.32
2023-07-18T13:33:02.565Z,31.53
2023-07-18T13:35:29.190Z,31.51
2023-07-18T13:37:56.119Z,31.57
2023-07-18T13:40:23.342Z,31.84
2023-07-18T13:42:50.069Z,31.67
2023-07-18T13:45:21.182Z,31.64
2023-07-18T13:48:10.664Z,31.65
2023-07-18T13:50:39.124Z,31.33
2023-07-18T13:53:05.911Z,31.46
2023-07-18T13:55:34.680Z,31.08
2023-07-18T13:58:01.371Z,30.89
2023-07-18T14:00:43.183Z,30.81
2023-07-18T14:03:23.452Z,30.89
2023-07-18T14:05:59.390Z,30.92
2023-07-18T14:08:27.357Z,30.65
2023-07-18T14:10:54.153Z,31.28
2023-07-18T14:13:22.967Z,31.54
2023-07-18T14:15:49.740Z,31.32
2023-07-18T14:18:20.618Z,31.13
2023-07-18T14:20:47.288Z,30.74
2023-07-18T14:23:14.090Z,30.92
2023-07-18T14:25:41.959Z,31.14
2023-07-18T14:28:08.614Z,31.12
2023-07-18T14:30:42.212Z,31.26
2023-07-18T14:33:08.819Z,30.98
2023-07-18T14:35:44.589Z,31.28
2023-07-18T14:38:11.545Z,31.07
2023-07-18T14:40:38.212Z,31.07
2023-07-18T14:43:09.810Z,31.27
2023-07-18T14:45:42.826Z,31.08
2023-07-18T14:48:09.816Z,31.33
2023-07-18T14:50:36.553Z,31.32
2023-07-18T14:53:10.253Z,31.21
2023-07-18T14:55:42.944Z,31.11
2023-07-18T14:58:11.979Z,31.00
2023-07-18T15:00:43.174Z,30.87
2023-07-18T15:03:24.316Z,30.65
2023-07-18T15:06:08.521Z,30.77
2023-07-18T15:08:43.356Z,30.86
2023-07-18T15:11:19.181Z,31.14
2023-07-18T15:13:46.007Z,30.68
2023-07-18T15:16:20.071Z,30.63
2023-07-18T15:19:12.778Z,30.99
2023-07-18T15:21:39.955Z,30.61
2023-07-18T15:24:07.073Z,30.76
2023-07-18T15:26:34.938Z,30.97
2023-07-18T15:29:11.703Z,30.86
2023-07-18T15:31:42.662Z,30.77
2023-07-18T15:34:10.249Z,30.94
2023-07-18T15:36:36.953Z,30.71
2023-07-18T15:39:05.552Z,30.75
2023-07-18T15:41:35.531Z,30.83
2023-07-18T15:44:08.430Z,30.85
2023-07-18T15:46:50.168Z,30.79
2023-07-18T15:49:21.146Z,30.24
2023-07-18T15:51:48.944Z,30.23
2023-07-18T15:54:19.885Z,29.92
2023-07-18T15:56:53.410Z,30.08
2023-07-18T15:59:53.109Z,30.25
2023-07-18T16:02:20.816Z,30.10
2023-07-18T16:04:47.473Z,30.49
2023-07-18T16:07:15.352Z,30.13
2023-07-18T16:10:00.408Z,30.36
2023-07-18T16:12:27.411Z,30.49
2023-07-18T16:14:54.191Z,30.27
2023-07-18T16:17:23.893Z,30.67
2023-07-18T16:19:52.986Z,30.39
2023-07-18T16:22:25.940Z,30.65
2023-07-18T16:25:05.685Z,30.80
2023-07-18T16:27:39.478Z,30.70
2023-07-18T16:30:07.062Z,30.42
2023-07-18T16:32:35.084Z,30.45
2023-07-18T16:35:08.332Z,29.83
2023-07-18T16:37:35.012Z,30.08
2023-07-18T16:40:03.566Z,30.13
2023-07-18T16:42:32.903Z,30.24
2023-07-18T16:45:30.361Z,30.46
2023-07-18T16:47:57.601Z,30.13
2023-07-18T16:50:26.970Z,30.17
2023-07-18T16:52:56.197Z,29.90
2023-07-18T16:55:23.524Z,30.02
2023-07-18T16:58:02.872Z,30.33
2023-07-18T17:00:33.595Z,30.27
2023-07-18T17:03:00.488Z,30.10
2023-07-18T17:05:28.048Z,30.17
2023-07-18T17:07:56.396Z,30.17
2023-07-18T17:10:24.293Z,30.15
2023-07-18T17:12:53.722Z,30.21
2023-07-18T17:15:20.754Z,30.13
2023-07-18T17:17:47.845Z,29.93
2023-07-18T17:20:18.830Z,29.83
2023-07-18T17:22:45.438Z,29.84
2023-07-18T17:25:14.164Z,29.74
2023-07-18T17:27:40.898Z,29.92
2023-07-18T17:30:33.668Z,29.64
2023-07-18T17:33:01.414Z,29.47
2023-07-18T17:35:35.296Z,29.46
2023-07-18T17:38:03.002Z,29.47
2023-07-18T17:40:29.591Z,29.48
2023-07-18T17:43:06.083Z,29.38
2023-07-18T17:45:32.789Z,29.27
2023-07-18T17:47:59.598Z,29.08
2023-07-18T17:50:33.450Z,29.03
2023-07-18T17:53:00.082Z,28.91
2023-07-18T17:55:28.896Z,28.95
2023-07-18T17:57:55.842Z,28.97
2023-07-18T18:00:25.304Z,28.74
2023-07-18T18:02:51.891Z,28.67
2023-07-18T18:05:47.022Z,28.41
2023-07-18T18:08:17.355Z,28.47
2023-07-18T18:10:46.235Z,28.37
2023-07-18T18:13:29.415Z,28.24
2023-07-18T18:16:07.413Z,28.21
2023-07-18T18:18:47.762Z,27.96
2023-07-18T18:21:14.365Z,27.95
2023-07-18T18:23:41.427Z,27.79
2023-07-18T18:26:18.436Z,27.60
2023-07-18T18:28:44.973Z,27.54
2023-07-18T18:31:16.240Z,27.48
2023-07-18T18:33:43.981Z,27.38
2023-07-18T18:36:24.177Z,27.33
2023-07-18T18:38:51.810Z,27.22
2023-07-18T18:41:18.515Z,27.12
2023-07-18T18:43:45.327Z,27.06
2023-07-18T18:46:12.224Z,27.05
2023-07-18T18:48:38.766Z,26.94
2023-07-18T18:51:05.428Z,26.88
2023-07-18T18:53:32.152Z,26.70
2023-07-18T18:55:59.220Z,26.58
2023-07-18T18:58:25.923Z,26.56
2023-07-18T19:00:52.776Z,26.46
2023-07-18T19:03:19.684Z,26.42
2023-07-18T19:05:47.756Z,26.33
2023-07-18T19:08:19.439Z,26.31
2023-07-18T19:11:07.949Z,26.21
2023-07-18T19:13:38.299Z,26.08
2023-07-18T19:16:07.891Z,26.10
2023-07-18T19:18:37.994Z,25.91
2023-07-18T19:21:05.702Z,25.71
2023-07-18T19:23:43.088Z,25.70
2023-07-18T19:26:33.302Z,25.51
2023-07-18T19:28:59.823Z,25.35
2023-07-18T19:31:26.402Z,25.41
2023-07-18T19:33:52.985Z,25.34
2023-07-18T19:36:19.552Z,25.02
2023-07-18T19:38:49.311Z,24.82
2023-07-18T19:41:16.951Z,24.55
2023-07-18T19:43:43.631Z,24.51
2023-07-18T19:46:10.268Z,24.46
2023-07-18T19:48:36.912Z,24.44
2023-07-18T19:51:03.519Z,24.24
2023-07-18T19:53:30.130Z,24.20
2023-07-18T19:55:56.901Z,24.24
2023-07-18T19:58:23.544Z,24.22
2023-07-18T20:00:50.369Z,24.20
2023-07-18T20:03:17.009Z,24.09
2023-07-18T20:05:43.777Z,24.31
2023-07-18T20:08:10.316Z,24.30
2023-07-18T20:10:36.871Z,24.15
2023-07-18T20:13:03.442Z,24.21
2023-07-18T20:15:30.975Z,24.14
2023-07-18T20:17:58.976Z,24.09
2023-07-18T20:20:25.620Z,23.93
2023-07-18T20:22:52.234Z,23.91
2023-07-18T20:25:18.804Z,23.91
2023-07-18T20:27:45.295Z,23.91
2023-07-18T20:30:11.913Z,23.95
2023-07-18T20:32:38.479Z,23.84
2023-07-18T20:35:05.401Z,23.85
2023-07-18T20:37:31.887Z,23.79
2023-07-18T20:40:01.871Z,23.51
2023-07-18T20:42:28.602Z,23.45
2023-07-18T20:44:59.043Z,23.32
2023-07-18T20:47:25.703Z,23.35
2023-07-18T20:49:52.594Z,23.43
2023-07-18T20:52:19.236Z,23.37
2023-07-18T20:54:46.031Z,23.45
2023-07-18T20:57:12.596Z,23.40
2023-07-18T20:59:39.173Z,23.42
2023-07-18T21:02:06.685Z,23.27
2023-07-18T21:04:34.166Z,23.08
2023-07-18T21:07:01.294Z,23.16
2023-07-18T21:09:28.004Z,23.20
2023-07-18T21:11:54.456Z,23.12
2023-07-18T21:14:21.016Z,22.95
2023-07-18T21:16:47.523Z,22.83
2023-07-18T21:19:14.079Z,22.79
2023-07-18T21:21:41.599Z,22.79
2023-07-18T21:24:08.183Z,22.91
2023-07-18T21:26:34.755Z,22.87
2023-07-18T21:29:05.329Z,22.79
2023-07-18T21:31:34.377Z,22.72
2023-07-18T21:34:03.492Z,22.74
2023-07-18T21:36:30.673Z,22.52
2023-07-18T21:38:58.312Z,22.37
2023-07-18T21:41:24.861Z,22.34
2023-07-18T21:43:51.378Z,22.17
2023-07-18T21:46:18.110Z,22.33
2023-07-18T21:48:44.693Z,22.16
2023-07-18T21:51:11.206Z,21.98
2023-07-18T21:53:37.737Z,22.08
2023-07-18T21:56:04.485Z,22.12
2023-07-18T21:58:31.010Z,21.99
2023-07-18T22:00:57.570Z,21.85
2023-07-18T22:03:24.342Z,21.82
2023-07-18T22:05:50.921Z,21.76
2023-07-18T22:08:17.475Z,21.89
2023-07-18T22:10:44.284Z,21.81
2023-07-18T22:13:12.343Z,21.82
2023-07-18T22:15:39.201Z,21.51
2023-07-18T22:18:15.799Z,21.63
2023-07-18T22:20:47.153Z,21.30
2023-07-18T22:23:13.773Z,21.43
2023-07-18T22:25:40.326Z,21.48
2023-07-18T22:28:06.958Z,21.23
2023-07-18T22:30:33.503Z,21.09
2023-07-18T22:33:00.046Z,21.03
2023-07-18T22:35:27.480Z,20.82
2023-07-18T22:37:54.728Z,21.08
2023-07-18T22:40:21.551Z,20.96
2023-07-18T22:42:48.221Z,20.91
2023-07-18T22:45:15.014Z,21.04
2023-07-18T22:47:41.659Z,20.81
2023-07-18T22:50:08.938Z,20.85
2023-07-18T22:52:37.246Z,20.85
2023-07-18T22:55:04.124Z,20.52
2023-07-18T22:57:30.613Z,20.44
2023-07-18T22:59:57.134Z,20.52
2023-07-18T23:02:24.418Z,20.66
2023-07-18T23:04:51.024Z,20.55
2023-07-18T23:07:17.583Z,20.37
2023-07-18T23:09:44.116Z,20.27
2023-07-18T23:12:12.616Z,19.95
2023-07-18T23:14:39.421Z,20.03
2023-07-18T23:17:06.079Z,19.97
2023-07-18T23:19:32.783Z,19.89
2023-07-18T23:21:59.323Z,19.81
2023-07-18T23:24:25.924Z,19.91
2023-07-18T23:26:52.414Z,20.08
2023-07-18T23:29:18.938Z,19.87
2023-07-18T23:31:45.450Z,19.89
2023-07-18T23:34:12.012Z,19.93
2023-07-18T23:36:38.476Z,19.73
2023-07-18T23:39:06.701Z,19.66
2023-07-18T23:41:33.227Z,19.53
2023-07-18T23:43:59.786Z,19.40
2023-07-18T23:46:26.396Z,19.33
2023-07-18T23:48:52.972Z,19.25
2023-07-18T23:51:19.914Z,19.52
2023-07-18T23:53:46.907Z,19.35
2023-07-18T23:56:13.496Z,19.24
2023-07-18T23:58:40.334Z,19.21
